Accueil
METAR-TAF:

METAR-TAF

Aéroports :

St. Clair County International Airport

Port Huron, Michigan, États-Unis

latitude: 42-55N, longitude: 082-32W, altitude: 198 m

Observation

Le bulletin a été fait il y a 25 minutes, à 07:15 UTC
Vent 3 kt de sud/sud-ouest
Température 16°C
Humidité 72%
Pression 1012 hPa
Visibilité: 16.1 km
Ciel couvert à une hauteur de 11000 ft
pluie faible

METAR: KPHN 210715Z AUTO 20003KT 10SM -RA OVC110 16/11 A2988 RMK AO2

Heure: 03:40 (07:40 UTC)


TAF: absent

Observations et prévisions météorologiques de plus de 4000 aéroports (messages METAR et TAF).

Les stations disponibles sont représentées par des disques jaunes et rouges sur la carte.

Passer la souris dessus pour voir le nom de la station.

Cliquer dessus pour voir les observations et prévisions météorologiques.

Pour changer de carte: cliquez sur les boutons verts avec une croix noire pour zoomer, sur le bouton vert avec un tiret pour effectuer un zoom arrière, ou sur les flèches vertes pour les cartes adjacentes.


METAR-TAF: